Terminal Aerodrome Forecast
Issued by NWS

Home | Current Version | Previous Version | Text Only | Print | Product List | Glossary On
Versions: 1 2 3 4 5 6 7 8 9 10 11 12 13 14 15 16
000
FTUS43 KGLD 221406 AAA
TAFMCK
TAF AMD
KMCK 221406Z 2214/2312 34025G38KT 1SM BLSN OVC040
     FM221600 33024G33KT P6SM BKN100
      TEMPO 2216/2218 2SM BLSN OVC015
     FM222300 32011KT P6SM FEW250=

USA.gov is the U.S. government's official web portal to all federal, state and local government web resources and services.